Tiempo atmosférico en la estación meteorológica de Villafáfila, Zamora (690 m.)



Fecha
DESCASC
Temp. máxima en grados centígrados (hora)
DESCASC
Temp. mínima en grados centígrados (hora)
DESCASC
Temp. media en grados centígrados
DESCASC
Racha de viento máxima en m/sg (hora)
DESCASC
Velocidad máxima media en intervalos de 10 minutos(hora)
DESCASC
Precipitaciones diarias en mm
DESCASC
Precipitaciones de 00:00 a 06:00 en mm
DESCASC
Precipitaciones de 06:00 a 12:00 en mm
DESCASC
Precipitaciones de 12:00 a 18:00 en mm
DESCASC
Precipitaciones de 18:00 a 24:00 en mm
DESCASC
06-07-2020 33.1 (17:50) 16.6 (07:00) 24.8 15.56 (21:50) 10 (22:00) 0 0 0 0 0
05-07-2020 34.2 (17:20) 13.7 (07:00) 24 8.89 (23:40) 5.28 (01:50) 0 0 0 0 0
04-07-2020 31.9 (18:30) 9.3 (06:40) 20.6 8.33 (23:30) 5.28 (23:59) 0 0 0 0 0
03-07-2020 28 (19:10) 8.9 (06:00) 18.4 10 (13:50) 6.39 (09:40) 0 0 0 0 0
02-07-2020 27.1 (18:50) 10.9 (00:00) 19 11.11 (22:20) 8.06 (23:10) 0 0 0 0 0
01-07-2020 31.3 (17:00) 15.2 (00:00) 23.2 12.78 (17:30) 8.06 (15:50) 0 0 0 0 0
30-06-2020 34.8 (18:00) 13.4 (00:00) 24.1 10 (18:30) 6.94 (21:30) 0 0 0 0 0
29-06-2020 31.7 (18:40) 12.8 (00:00) 22.3 14.72 (17:50) 5 (23:59) 0 0 0 0 0
28-06-2020 31.2 (18:10) 11 (00:00) 21.1 8.89 (20:50) 5.28 (20:50) 0 0 0 0 0
27-06-2020 27.4 (17:00) 13 (00:00) 20.2 14.17 (15:20) 6.11 (19:30) 0 0 0 0 0
26-06-2020 27.3 (16:20) 13.9 (00:00) 20.6 11.67 (16:40) 7.5 (17:10) 0 0 0 0 0
25-06-2020 31.2 (18:00) 14.6 (00:00) 22.9 13.06 (18:40) 7.22 (18:40) 0.8 0.4 0.4 0 0
24-06-2020 31 (13:40) 15.2 (00:00) 23.1 19.72 (19:00) 12.5 (19:20) 1.6 0 0 0.6 1
23-06-2020 36 (17:40) 13.2 (00:00) 24.6 10.28 (19:30) 6.39 (21:30) 0 0 0 0 0
22-06-2020 32.9 (18:00) 12.3 (00:00) 22.6 9.17 (17:30) 5.83 (00:10) 0 0 0 0 0
21-06-2020 30.4 (19:10) 8.6 (00:00) 19.5 12.22 (23:50) 6.94 (23:40) 0 0 0 0 0
20-06-2020 29.2 (17:40) 8.8 (00:00) 19 10.28 (17:50) 6.11 (17:50) 0 0 0 0 0
19-06-2020 27.5 (18:10) 7.2 (00:00) 17.3 8.61 (19:30) 5.83 (20:10) 0 0 0 0 0
18-06-2020 24.8 (18:00) 8.5 (03:30) 16.6 8.61 (20:10) 5 (19:50) 0 0 0 0 0
17-06-2020 22.2 (16:00) 7.7 (00:00) 15 9.44 (22:10) 6.67 (22:10) 0 0 0 0 0
16-06-2020 23 (17:50) 9 (00:00) 16 16.39 (17:50) 8.89 (16:00) 0.2 0 0 0.2 0
15-06-2020 21.5 (14:50) 6.3 (00:00) 13.9 13.06 (15:10) 6.39 (19:40) 0 0 0 0 0
14-06-2020 20.5 (19:00) 5.6 (00:00) 13 10.56 (19:50) 7.5 (19:50) 0 0 0 0 0
13-06-2020 19 (18:40) 7.7 (00:00) 13.3 13.61 (11:50) 7.22 (10:40) 0 0 0 0 0
12-06-2020 16.1 (12:00) 8.9 (00:00) 12.5 16.11 (12:40) 10 (12:40) 2.6 0 0 2.4 0.2
11-06-2020 20.9 (14:20) 9.7 (00:00) 15.3 17.5 (18:20) 10.83 (14:10) 0 0 0 0 0
10-06-2020 24.6 (18:20) 6.4 (00:00) 15.5 10.28 (19:50) 6.39 (19:50) 0 0 0 0 0

Gráficas

Temp. máximas Temp. mínimas Temp. medias Precipitaciones Rachas de viento máximas Velocidades máximas media en intervalos de 10 minutos

Datos horarios

Fecha y hora oficial Temperatura (ºC) Velocidad del viento (km/h) Dirección del viento Racha (km/h) Dirección de racha Precipitación (mm) Presión (hPa) Tendencia (hPa) Humedad (%)
2020-07-09 23:00:00 22 20 Norte 29 Norte 0 -- -- 57
2020-07-09 22:00:00 22.5 20 Este 43 Este 0 -- -- 56
2020-07-09 21:00:00 26.6 28 Este 48 Este 0 -- -- 40
2020-07-09 20:00:00 33.2 18 Este 37 Nordeste 0 -- -- 27
2020-07-09 19:00:00 33.7 19 Noroeste 31 Noroeste 0 -- -- 27
2020-07-09 18:00:00 33.5 14 Nordeste 33 Noroeste 0 -- -- 27
2020-07-09 17:00:00 34 7 Noroeste 26 Noroeste 0 -- -- 28
2020-07-09 16:00:00 33.4 12 Nordeste 31 Norte 0 -- -- 29
2020-07-09 15:00:00 32.1 12 Norte 26 Nordeste 0 -- -- 32
2020-07-09 14:00:00 30.5 12 Norte 27 Noroeste 0 -- -- 36
2020-07-09 13:00:00 29.3 12 Noroeste 22 Norte 0 -- -- 40
2020-07-09 12:00:00 26.9 10 Noroeste 18 Noroeste 0 -- -- 46
2020-07-09 11:00:00 24.4 9 Norte 19 Norte 0 -- -- 52
2020-07-09 10:00:00 20.6 13 Norte 19 Norte 0 -- -- 65
2020-07-09 09:00:00 19.6 11 Norte 17 Norte 0 -- -- 71
2020-07-09 08:00:00 15.6 11 Norte 14 Norte 0 -- -- 85
2020-07-09 07:00:00 14.7 11 Norte 19 Norte 0 -- -- 86
2020-07-09 06:00:00 14.7 10 Norte 16 Norte 0 -- -- 86
2020-07-09 05:00:00 14.9 11 Norte 16 Norte 0 -- -- 85
2020-07-09 04:00:00 15.8 12 Norte 15 Norte 0 -- -- 83
2020-07-09 03:00:00 17.5 4 Noroeste 13 Nordeste 0 -- -- 76
2020-07-09 02:00:00 19.1 8 Este 30 Nordeste 0 -- -- 72
2020-07-09 01:00:00 20 20 Nordeste 32 Nordeste 0 -- -- 68
2020-07-09 00:00:00 19.5 12 Norte 40 Norte 0 -- -- 68
2020-07-08 23:00:00 19.7 33 Norte 69 Norte 0.6 -- -- 66
2020-07-08 22:00:00 23.1 39 Nordeste 73 Este 0 -- -- 49
2020-07-08 21:00:00 23.3 34 Este 57 Nordeste 0 -- -- 53
2020-07-08 20:00:00 25.6 30 Norte 43 Norte 0 -- -- 42
2020-07-08 19:00:00 26.9 32 Noroeste 58 Noroeste 0 -- -- 39
2020-07-08 18:00:00 25.7 10 Noroeste 39 Noroeste 0.2 -- -- 47
2020-07-08 17:00:00 30 16 Noroeste 40 Este 0 -- -- 32
2020-07-08 16:00:00 33.6 22 Este 38 Este 0 -- -- 22
2020-07-08 15:00:00 36.1 15 Sudeste 46 Sudeste 0 -- -- 20
2020-07-08 14:00:00 34.7 9 Sudeste 24 Nordeste 0 -- -- 24
2020-07-08 13:00:00 32.1 10 Este 27 Sudeste 0 -- -- 28
2020-07-08 12:00:00 28.5 12 Nordeste 19 Nordeste 0 -- -- 33
2020-07-08 11:00:00 25.9 12 Nordeste 21 Nordeste 0 -- -- 39
2020-07-08 10:00:00 22.5 15 Nordeste 19 Nordeste 0 -- -- 45
2020-07-08 09:00:00 19.6 12 Nordeste 18 Nordeste 0 -- -- 51
2020-07-08 08:00:00 17.5 9 Norte 17 Norte 0 -- -- 58
2020-07-08 07:00:00 16.5 12 Norte 20 Norte 0 -- -- 64
2020-07-08 06:00:00 17 12 Norte 22 Norte 0 -- -- 63
2020-07-08 05:00:00 17.3 8 Norte 19 Norte 0 -- -- 62
2020-07-08 04:00:00 19.2 12 Norte 22 Nordeste 0 -- -- 54
2020-07-08 03:00:00 20.2 14 Nordeste 25 Nordeste 0 -- -- 52
2020-07-08 02:00:00 21.8 18 Nordeste 32 Nordeste 0 -- -- 47
2020-07-08 01:00:00 23.4 18 Nordeste 29 Nordeste 0 -- -- 40
2020-07-08 00:00:00 21.2 14 Nordeste 24 Nordeste 0 -- -- 38
2020-07-07 23:00:00 23.2 3 Noroeste 11 Sudoeste 0 -- -- 33
2020-07-07 22:00:00 28.3 5 Oeste 13 Oeste 0 -- -- 28
2020-07-07 21:00:00 33.1 9 Oeste 21 Oeste 0 -- -- 20
2020-07-07 20:00:00 34.7 12 Sudoeste 22 Sudoeste 0 -- -- 18
2020-07-07 19:00:00 35.2 13 Sur 33 Sur 0 -- -- 19
2020-07-07 18:00:00 35.4 11 Sur 26 Sudoeste 0 -- -- 16
2020-07-07 17:00:00 35.2 11 Sur 20 Sur 0 -- -- 22
2020-07-07 16:00:00 34.3 7 Sur 21 Sudoeste 0 -- -- 27
2020-07-07 15:00:00 33.3 8 Este 18 Sudeste 0 -- -- 26
2020-07-07 14:00:00 31.6 10 Nordeste 22 Nordeste 0 -- -- 24
2020-07-07 13:00:00 29.2 13 Nordeste 23 Nordeste 0 -- -- 25
2020-07-07 12:00:00 25.9 15 Nordeste 28 Nordeste 0 -- -- 28
2020-07-07 11:00:00 22.6 17 Norte 28 Norte 0 -- -- 34
2020-07-07 10:00:00 19.5 16 Nordeste 27 Nordeste 0 -- -- 42
2020-07-07 09:00:00 17.3 19 Nordeste 29 Nordeste 0 -- -- 48
2020-07-07 08:00:00 14.9 9 Norte 17 Norte 0 -- -- 60
2020-07-07 07:00:00 12.2 11 Norte 16 Norte 0 -- -- 71
2020-07-07 06:00:00 12.5 12 Norte 15 Norte 0 -- -- 73
2020-07-07 05:00:00 13 11 Norte 16 Norte 0 -- -- 72
2020-07-07 04:00:00 14.3 8 Norte 19 Nordeste 0 -- -- 69
2020-07-07 03:00:00 15.4 14 Nordeste 24 Nordeste 0 -- -- 66
2020-07-07 02:00:00 16.2 10 Nordeste 32 Nordeste 0 -- -- 66
2020-07-07 01:00:00 17.5 19 Nordeste 42 Nordeste 0 -- -- 65
2020-07-07 00:00:00 19.4 29 Nordeste 47 Este 0 -- -- 62
2020-07-06 23:00:00 21.8 30 Nordeste 45 Este 0 -- -- 52
2020-07-06 22:00:00 24.2 36 Nordeste 56 Este 0 -- -- 42
2020-07-06 21:00:00 27.8 32 Este 42 Nordeste 0 -- -- 39
2020-07-06 20:00:00 30.8 26 Este 37 Nordeste 0 -- -- 34
2020-07-06 19:00:00 32.3 21 Este 31 Nordeste 0 -- -- 33
2020-07-06 18:00:00 32.8 15 Nordeste 32 Nordeste 0 -- -- 33
2020-07-06 17:00:00 32.8 12 Norte 24 Nordeste 0 -- -- 34
2020-07-06 16:00:00 32 14 Nordeste 29 Nordeste 0 -- -- 36
2020-07-06 15:00:00 31.4 16 Nordeste 33 Nordeste 0 -- -- 37
2020-07-06 14:00:00 30.2 18 Nordeste 32 Este 0 -- -- 39
2020-07-06 13:00:00 28.7 20 Nordeste 44 Nordeste 0 -- -- 42
2020-07-06 12:00:00 26.6 20 Nordeste 37 Nordeste 0 -- -- 47
2020-07-06 11:00:00 24.2 21 Nordeste 36 Nordeste 0 -- -- 52
2020-07-06 10:00:00 22.3 24 Nordeste 34 Nordeste 0 -- -- 56
2020-07-06 09:00:00 20.6 20 Nordeste 30 Nordeste 0 -- -- 59
2020-07-06 08:00:00 18.6 13 Nordeste 22 Nordeste 0 -- -- 66
2020-07-06 07:00:00 16.6 11 Nordeste 18 Nordeste 0 -- -- 74
2020-07-06 06:00:00 17.2 12 Nordeste 20 Nordeste 0 -- -- 72
2020-07-06 05:00:00 18 14 Nordeste 20 Nordeste 0 -- -- 68
2020-07-06 04:00:00 19.2 14 Nordeste 27 Nordeste 0 -- -- 65
2020-07-06 03:00:00 20.3 16 Nordeste 33 Nordeste 0 -- -- 60
2020-07-06 02:00:00 21.9 17 Nordeste 40 Nordeste 0 -- -- 57
2020-07-06 01:00:00 23.9 18 Nordeste 34 Nordeste 0 -- -- 56
2020-07-06 00:00:00 25 17 Nordeste 32 Nordeste 0 -- -- 49
2020-07-05 23:00:00 23.7 9 Norte 12 Noroeste 0 -- -- 47
2020-07-05 22:00:00 28 9 Noroeste 12 Noroeste 0 -- -- 37
2020-07-05 21:00:00 32.9 7 Noroeste 18 Oeste 0 -- -- 28
2020-07-05 20:00:00 33.5 10 Oeste 20 Oeste 0 -- -- 27
2020-07-05 19:00:00 33.7 6 Noroeste 24 Norte 0 -- -- 27
2020-07-05 18:00:00 34.2 7 Nordeste 26 Noroeste 0 -- -- 27
2020-07-05 17:00:00 33.5 14 Noroeste 26 Noroeste 0 -- -- 28
2020-07-05 16:00:00 33.1 6 Nordeste 22 Norte 0 -- -- 29
2020-07-05 15:00:00 32.2 8 Oeste 19 Este 0 -- -- 31
2020-07-05 14:00:00 31.5 11 Nordeste 22 Este 0 -- -- 30
2020-07-05 13:00:00 30.3 10 Este 26 Este 0 -- -- 32
2020-07-05 12:00:00 28.3 12 Nordeste 22 Nordeste 0 -- -- 36
2020-07-05 11:00:00 25.6 13 Nordeste 24 Nordeste 0 -- -- 41
2020-07-05 10:00:00 23.6 14 Nordeste 23 Norte 0 -- -- 44
2020-07-05 09:00:00 20.7 13 Norte 20 Norte 0 -- -- 50
2020-07-05 08:00:00 16.5 10 Norte 16 Norte 0 -- -- 62
2020-07-05 07:00:00 13.7 12 Norte 21 Norte 0 -- -- 69
2020-07-05 06:00:00 14.2 11 Noroeste 18 Norte 0 -- -- 66
2020-07-05 05:00:00 15.6 9 Noroeste 13 Noroeste 0 -- -- 62
2020-07-05 04:00:00 17.8 10 Nordeste 17 Nordeste 0 -- -- 57
2020-07-05 03:00:00 18.9 10 Nordeste 26 Nordeste 0 -- -- 53
2020-07-05 02:00:00 20 17 Nordeste 31 Nordeste 0 -- -- 49
2020-07-05 01:00:00 21 17 Nordeste 26 Nordeste 0 -- -- 45
2020-07-05 00:00:00 22.2 19 Nordeste 30 Este 0 -- -- 42
2020-07-04 23:00:00 22.1 4 Nordeste 13 Nordeste 0 -- -- 40
2020-07-04 22:00:00 26.1 9 Norte 11 Norte 0 -- -- 33
2020-07-04 21:00:00 30.4 5 Norte 15 Noroeste 0 -- -- 24
2020-07-04 20:00:00 31.1 8 Noroeste 25 Noroeste 0 -- -- 23
2020-07-04 19:00:00 31.3 15 Norte 24 Noroeste 0 -- -- 24
2020-07-04 18:00:00 31.6 11 Norte 28 Norte 0 -- -- 24
2020-07-04 17:00:00 31 4 Noroeste 20 Norte 0 -- -- 25
2020-07-04 16:00:00 30.3 9 Oeste 18 Oeste 0 -- -- 27
2020-07-04 15:00:00 29 7 Oeste 17 Oeste 0 -- -- 30
2020-07-04 14:00:00 27.5 10 Noroeste 18 Oeste 0 -- -- 30
2020-07-04 13:00:00 26.2 8 Nordeste 16 Este 0 -- -- 36
2020-07-04 12:00:00 23.6 5 Noroeste 17 Norte 0 -- -- 41
2020-07-04 11:00:00 21.6 10 Nordeste 20 Nordeste 0 -- -- 48
2020-07-04 10:00:00 18.4 12 Nordeste 24 Nordeste 0 -- -- 53
2020-07-04 09:00:00 15.6 12 Nordeste 17 Nordeste 0 -- -- 65
2020-07-04 08:00:00 12.3 11 Norte 20 Norte 0 -- -- 81
2020-07-04 07:00:00 9.4 10 Norte 13 Norte 0 -- -- 88
2020-07-04 06:00:00 9.9 9 Noroeste 11 Noroeste 0 -- -- 83
2020-07-04 05:00:00 11.1 6 Norte 9 Nordeste 0 -- -- 77
2020-07-04 04:00:00 13.2 6 Nordeste 15 Nordeste 0 -- -- 72
2020-07-04 03:00:00 14.6 12 Nordeste 20 Nordeste 0 -- -- 69
2020-07-04 02:00:00 15 12 Norte 20 Nordeste 0 -- -- 63
2020-07-04 01:00:00 16 16 Nordeste 25 Nordeste 0 -- -- 51
2020-07-04 00:00:00 16.6 13 Nordeste 18 Nordeste 0 -- -- 46
2020-07-03 23:00:00 17.8 8 Nordeste 16 Este 0 -- -- 40
2020-07-03 22:00:00 22.8 7 Norte 9 Norte 0 -- -- 34
2020-07-03 21:00:00 27.2 5 Noroeste 15 Noroeste 0 -- -- 25
2020-07-03 20:00:00 27.8 9 Noroeste 18 Norte 0 -- -- 25
2020-07-03 19:00:00 27.9 8 Noroeste 19 Norte 0 -- -- 26
2020-07-03 18:00:00 27.8 9 Norte 20 Este 0 -- -- 27
2020-07-03 17:00:00 27 10 Norte 23 Nordeste 0 -- -- 27
2020-07-03 16:00:00 26.5 9 Nordeste 24 Nordeste 0 -- -- 30
2020-07-03 15:00:00 25.3 14 Nordeste 23 Este 0 -- -- 34
2020-07-03 14:00:00 23.6 12 Norte 36 Norte 0 -- -- 37
2020-07-03 13:00:00 22.2 13 Nordeste 30 Norte 0 -- -- 42
2020-07-03 12:00:00 20.7 14 Nordeste 34 Nordeste 0 -- -- 46
2020-07-03 11:00:00 18.8 20 Nordeste 34 Nordeste 0 -- -- 51
2020-07-03 10:00:00 16.6 22 Nordeste 33 Nordeste 0 -- -- 57
2020-07-03 09:00:00 14.5 20 Nordeste 30 Nordeste 0 -- -- 65
2020-07-03 08:00:00 12 14 Norte 21 Nordeste 0 -- -- 77
2020-07-03 07:00:00 9 10 Norte 18 Nordeste 0 -- -- 86
2020-07-03 06:00:00 8.9 9 Norte 13 Norte 0 -- -- 85
2020-07-03 05:00:00 9.5 8 Norte 11 Norte 0 -- -- 83
2020-07-03 04:00:00 11 8 Nordeste 15 Nordeste 0 -- -- 78
2020-07-03 03:00:00 12.3 12 Nordeste 23 Nordeste 0 -- -- 75
2020-07-03 02:00:00 12.8 10 Nordeste 21 Nordeste 0 -- -- 73
2020-07-03 01:00:00 14 15 Nordeste 30 Nordeste 0 -- -- 68
2020-07-03 00:00:00 15.3 24 Nordeste 40 Nordeste 0 -- -- 65
2020-07-02 23:00:00 17.1 27 Nordeste 40 Nordeste 0 -- -- 60
2020-07-02 22:00:00 21.2 20 Nordeste 32 Nordeste 0 -- -- 51
2020-07-02 21:00:00 23.7 9 Oeste 26 Oeste 0 -- -- 42
2020-07-02 20:00:00 26 15 Sudoeste 31 Oeste 0 -- -- 29
2020-07-02 19:00:00 27 16 Oeste 30 Sudoeste 0 -- -- 24
2020-07-02 18:00:00 26.8 19 Sudoeste 32 Sudoeste 0 -- -- 26
2020-07-02 17:00:00 26.4 15 Sudoeste 33 Oeste 0 -- -- 30
2020-07-02 16:00:00 26.1 20 Sudoeste 39 Sur 0 -- -- 34
2020-07-02 15:00:00 25.1 19 Sudoeste 39 Sudoeste 0 -- -- 37
2020-07-02 14:00:00 24.6 15 Sudoeste 30 Sudoeste 0 -- -- 39
2020-07-02 13:00:00 23.4 14 Sudoeste 35 Sudoeste 0 -- -- 45
2020-07-02 12:00:00 23.1 12 Sudoeste 28 Sudoeste 0 -- -- 48
2020-07-02 11:00:00 21.1 5 Sudoeste 17 Sur 0 -- -- 56
2020-07-02 10:00:00 19.7 5 Sudeste 10 Este 0 -- -- 62
2020-07-02 09:00:00 17.4 3 Sudoeste 8 Oeste 0 -- -- 71
2020-07-02 08:00:00 13.8 5 Sudoeste 9 Sur 0 -- -- 83
2020-07-02 07:00:00 11 0 Calma 8 Este 0 -- -- 84
2020-07-02 06:00:00 11.7 6 Norte 9 Norte 0 -- -- 84
2020-07-02 05:00:00 12.5 0 Calma 12 Este 0 -- -- 81
2020-07-02 04:00:00 13.3 0 Calma 5 Este 0 -- -- 77
2020-07-02 03:00:00 14.3 4 Nordeste 9 Este 0 -- -- 76
2020-07-02 02:00:00 15.7 5 Norte 15 Noroeste 0 -- -- 72
2020-07-02 01:00:00 16.6 9 Noroeste 12 Norte 0 -- -- 69
2020-07-02 00:00:00 18.3 8 Noroeste 19 Noroeste 0 -- -- 61
2020-07-01 23:00:00 21 10 Noroeste 24 Noroeste 0 -- -- 53
2020-07-01 22:00:00 23.9 15 Oeste 33 Oeste 0 -- -- 42
2020-07-01 21:00:00 27.1 22 Oeste 39 Oeste 0 -- -- 31
2020-07-01 20:00:00 29.1 21 Oeste 42 Sudoeste 0 -- -- 31
2020-07-01 19:00:00 29.8 24 Oeste 41 Oeste 0 -- -- 31
2020-07-01 18:00:00 30.6 27 Sudoeste 46 Oeste 0 -- -- 28
2020-07-01 17:00:00 31.3 26 Oeste 42 Oeste 0 -- -- 24
2020-07-01 16:00:00 30.9 25 Sudoeste 43 Sudoeste 0 -- -- 25
2020-07-01 15:00:00 30.9 23 Sudoeste 39 Sudoeste 0 -- -- 24
2020-07-01 14:00:00 30.2 18 Sudoeste 37 Sudoeste 0 -- -- 28
2020-07-01 13:00:00 29.1 17 Sudoeste 27 Sudoeste 0 -- -- 34
2020-07-01 12:00:00 26.9 12 Sudoeste 21 Sudoeste 0 -- -- 45
2020-07-01 11:00:00 25.1 5 Sur 12 Sur 0 -- -- 55
2020-07-01 10:00:00 23 3 Sudeste 10 Oeste 0 -- -- 63
2020-07-01 09:00:00 21 5 Oeste 9 Noroeste 0 -- -- 70
2020-07-01 08:00:00 17.6 4 Sudoeste 9 Sudoeste 0 -- -- 78
2020-07-01 07:00:00 15.2 5 Norte 8 Norte 0 -- -- 79
2020-07-01 06:00:00 16.1 6 Noroeste 12 Oeste 0 -- -- 77
2020-07-01 05:00:00 16.2 11 Oeste 15 Oeste 0 -- -- 76
2020-07-01 04:00:00 17.2 9 Oeste 10 Sudoeste 0 -- -- 73
2020-07-01 03:00:00 18.7 6 Nordeste 13 Noroeste 0 -- -- 67
2020-07-01 02:00:00 19.2 11 Noroeste 17 Noroeste 0 -- -- 65
2020-07-01 01:00:00 20.5 8 Oeste 11 Noroeste 0 -- -- 60
2020-07-01 00:00:00 22.1 6 Noroeste 18 Noroeste 0 -- -- 55
2020-06-30 23:00:00 24.4 14 Norte 26 Noroeste 0 -- -- 49
2020-06-30 22:00:00 25.8 18 Norte 33 Noroeste 0 -- -- 46
2020-06-30 21:00:00 29.7 13 Oeste 28 Oeste 0 -- -- 29
2020-06-30 20:00:00 33.7 15 Sudoeste 34 Oeste 0 -- -- 19
2020-06-30 19:00:00 33.9 17 Sudoeste 36 Sudoeste 0 -- -- 21
2020-06-30 18:00:00 34.8 18 Oeste 34 Oeste 0 -- -- 21
2020-06-30 17:00:00 34.4 14 Sudoeste 34 Sudoeste 0 -- -- 22
2020-06-30 16:00:00 33.7 14 Sudoeste 28 Oeste 0 -- -- 27
2020-06-30 15:00:00 32.7 5 Oeste 21 Sur 0 -- -- 31
2020-06-30 14:00:00 31.8 6 Este 18 Este 0 -- -- 33
2020-06-30 13:00:00 30.1 8 Este 22 Nordeste 0 -- -- 36
2020-06-30 12:00:00 28.1 11 Nordeste 26 Norte 0 -- -- 36
2020-06-30 11:00:00 25.1 16 Norte 26 Nordeste 0 -- -- 38
2020-06-30 10:00:00 23 19 Nordeste 29 Nordeste 0 -- -- 39
2020-06-30 09:00:00 20.2 17 Nordeste 25 Nordeste 0 -- -- 44
2020-06-30 08:00:00 16.1 14 Norte 18 Norte 0 -- -- 55
2020-06-30 07:00:00 13.5 8 Norte 14 Norte 0 -- -- 67
2020-06-30 06:00:00 13.7 10 Norte 17 Norte 0 -- -- 69
2020-06-30 05:00:00 14.9 13 Norte 16 Norte 0 -- -- 65
2020-06-30 04:00:00 16.4 12 Norte 18 Nordeste 0 -- -- 64
2020-06-30 03:00:00 18.1 13 Nordeste 24 Nordeste 0 -- -- 65
2020-06-30 02:00:00 19.8 16 Nordeste 26 Nordeste 0 -- -- 67
2020-06-30 01:00:00 21.3 19 Nordeste 33 Nordeste 0 -- -- 64
2020-06-30 00:00:00 22.5 18 Nordeste 26 Nordeste 0 -- -- 58
2020-06-29 23:00:00 22.7 11 Norte 18 Norte 0 -- -- 54
2020-06-29 22:00:00 26.4 11 Norte 19 Nordeste 0 -- -- 44
2020-06-29 21:00:00 30 13 Norte 19 Norte 0 -- -- 36
2020-06-29 20:00:00 31 8 Noroeste 19 Noroeste 0 -- -- 35
2020-06-29 19:00:00 31.3 8 Oeste 28 Norte 0 -- -- 33
2020-06-29 18:00:00 31.3 6 Norte 53 Noroeste 0 -- -- 34
2020-06-29 17:00:00 30.9 8 Norte 23 Norte 0 -- -- 36
2020-06-29 16:00:00 30 9 Noroeste 17 Noroeste 0 -- -- 39
2020-06-29 15:00:00 29.3 7 Noroeste 17 Norte 0 -- -- 39
2020-06-29 14:00:00 27.8 10 Noroeste 17 Noroeste 0 -- -- 44
2020-06-29 13:00:00 26.5 7 Este 16 Nordeste 0 -- -- 49
2020-06-29 12:00:00 24.8 8 Nordeste 21 Nordeste 0 -- -- 54
2020-06-29 11:00:00 22.7 9 Nordeste 19 Noroeste 0 -- -- 60
2020-06-29 10:00:00 21 11 Nordeste 21 Nordeste 0 -- -- 65
2020-06-29 09:00:00 18.9 13 Nordeste 21 Nordeste 0 -- -- 73
2020-06-29 08:00:00 15.8 9 Norte 14 Norte 0 -- -- 85
2020-06-29 07:00:00 12.9 10 Norte 12 Nordeste 0 -- -- 89
2020-06-29 06:00:00 13.1 7 Norte 9 Norte 0 -- -- 85
2020-06-29 05:00:00 14.3 4 Noroeste 9 Nordeste 0 -- -- 83
2020-06-29 04:00:00 15.1 6 Norte 17 Nordeste 0 -- -- 81
2020-06-29 03:00:00 15.5 9 Noroeste 12 Noroeste 0 -- -- 79
2020-06-29 02:00:00 16.6 4 Nordeste 15 Noroeste 0 -- -- 73
2020-06-29 01:00:00 18.5 12 Noroeste 18 Norte 0 -- -- 71
2020-06-29 00:00:00 19.4 9 Noroeste 15 Noroeste 0 -- -- 67
2020-06-28 23:00:00 21.6 12 Noroeste 27 Noroeste 0 -- -- 59
2020-06-28 22:00:00 23.8 16 Noroeste 26 Noroeste 0 -- -- 53
2020-06-28 21:00:00 27.1 17 Noroeste 32 Oeste 0 -- -- 45
2020-06-28 20:00:00 29.9 15 Sudoeste 29 Oeste 0 -- -- 37
2020-06-28 19:00:00 29.7 15 Oeste 27 Oeste 0 -- -- 36
2020-06-28 18:00:00 30.8 11 Sudoeste 29 Sudoeste 0 -- -- 34
2020-06-28 17:00:00 30.1 9 Oeste 30 Oeste 0 -- -- 36
2020-06-28 16:00:00 29.4 13 Oeste 24 Oeste 0 -- -- 36
2020-06-28 15:00:00 28.1 7 Sudoeste 21 Sudoeste 0 -- -- 40
2020-06-28 14:00:00 26.8 12 Noroeste 18 Oeste 0 -- -- 43
2020-06-28 13:00:00 25.5 6 Noroeste 17 Noroeste 0 -- -- 46
2020-06-28 12:00:00 23.9 8 Norte 14 Sudoeste 0 -- -- 50
2020-06-28 11:00:00 22 5 Este 14 Este 0 -- -- 57
2020-06-28 10:00:00 20.3 5 Nordeste 13 Norte 0 -- -- 62
2020-06-28 09:00:00 17.6 5 Norte 9 Norte 0 -- -- 74
2020-06-28 08:00:00 13.9 4 Norte 6 Norte 0 -- -- 88
2020-06-28 07:00:00 11 0 Calma 5 Oeste 0 -- -- 88
2020-06-28 06:00:00 12.1 4 Sudoeste 8 Sur 0 -- -- 87
2020-06-28 05:00:00 12.1 3 Oeste 6 Este 0 -- -- 86
2020-06-28 04:00:00 13.4 5 Sudoeste 8 Sudeste 0 -- -- 86
2020-06-28 03:00:00 14.1 4 Norte 13 Noroeste 0 -- -- 83
2020-06-28 02:00:00 15 7 Noroeste 11 Noroeste 0 -- -- 83
2020-06-28 01:00:00 16.1 5 Noroeste 12 Oeste 0 -- -- 76
2020-06-28 00:00:00 17.6 6 Oeste 11 Oeste 0 -- -- 68
2020-06-27 23:00:00 19.8 10 Oeste 22 Oeste 0 -- -- 62
2020-06-27 22:00:00 22.3 13 Oeste 30 Sudoeste 0 -- -- 55
2020-06-27 21:00:00 24.9 20 Oeste 40 Oeste 0 -- -- 49
2020-06-27 20:00:00 25.4 20 Oeste 32 Oeste 0 -- -- 47
2020-06-27 19:00:00 26.5 21 Oeste 32 Oeste 0 -- -- 44
2020-06-27 18:00:00 26.7 16 Sudoeste 29 Sudoeste 0 -- -- 43
2020-06-27 17:00:00 27.4 17 Sudoeste 37 Sudoeste 0 -- -- 42
2020-06-27 16:00:00 26.5 16 Oeste 51 Noroeste 0 -- -- 45
2020-06-27 15:00:00 24.9 14 Oeste 35 Oeste 0 -- -- 48
2020-06-27 14:00:00 23.4 15 Oeste 31 Sudoeste 0 -- -- 52
2020-06-27 13:00:00 23.4 14 Sudoeste 26 Sudoeste 0 -- -- 51
2020-06-27 12:00:00 21.7 12 Sudoeste 26 Oeste 0 -- -- 55
2020-06-27 11:00:00 21.6 12 Sudoeste 24 Oeste 0 -- -- 57
2020-06-27 10:00:00 19.4 10 Oeste 20 Oeste 0 -- -- 65
2020-06-27 09:00:00 17.2 10 Sudoeste 18 Sudoeste 0 -- -- 76
2020-06-27 08:00:00 15.3 2 Sudoeste 8 Sur 0 -- -- 82
2020-06-27 07:00:00 13.1 3 Sudeste 11 Sudoeste 0 -- -- 84
2020-06-27 06:00:00 13.9 6 Sudoeste 15 Oeste 0 -- -- 85
2020-06-27 05:00:00 14.1 3 Sur 16 Sudoeste 0 -- -- 81
2020-06-27 04:00:00 15.2 8 Oeste 13 Oeste 0 -- -- 78
2020-06-27 03:00:00 16.4 5 Sur 15 Sudoeste 0 -- -- 74
2020-06-27 02:00:00 17.3 8 Sudoeste 25 Oeste 0 -- -- 70
2020-06-27 01:00:00 17.9 14 Oeste 26 Oeste 0 -- -- 68
2020-06-27 00:00:00 19.1 17 Oeste 30 Sudoeste 0 -- -- 63
2020-06-26 23:00:00 20 16 Oeste 27 Sudoeste 0 -- -- 59
2020-06-26 22:00:00 21.8 15 Oeste 34 Oeste 0 -- -- 51
2020-06-26 21:00:00 24.6 21 Oeste 38 Oeste 0 -- -- 41
2020-06-26 20:00:00 25.8 23 Sudoeste 40 Sudoeste 0 -- -- 38
2020-06-26 19:00:00 26.3 24 Sudoeste 39 Oeste 0 -- -- 36
2020-06-26 18:00:00 25.2 27 Sudoeste 40 Sudoeste 0 -- -- 35
2020-06-26 17:00:00 26.2 21 Sudoeste 42 Sudoeste 0 -- -- 35
2020-06-26 16:00:00 26.8 19 Sudoeste 34 Sudoeste 0 -- -- 30
2020-06-26 15:00:00 26.2 19 Sudoeste 34 Sudoeste 0 -- -- 30
2020-06-26 14:00:00 24.6 16 Sudoeste 34 Sudoeste 0 -- -- 38
2020-06-26 13:00:00 23.3 19 Sudoeste 35 Sudoeste 0 -- -- 50
2020-06-26 12:00:00 20.4 12 Sur 32 Sudoeste 0 -- -- 58
2020-06-26 11:00:00 22 6 Sudoeste 17 Oeste 0 -- -- 60
2020-06-26 10:00:00 20.2 8 Oeste 20 Noroeste 0 -- -- 67
2020-06-26 09:00:00 17.5 13 Oeste 20 Oeste 0 -- -- 79
2020-06-26 08:00:00 15.4 6 Oeste 10 Oeste 0 -- -- 88
2020-06-26 07:00:00 14 5 Sudoeste 8 Sudoeste 0 -- -- 88
2020-06-26 06:00:00 14.3 7 Oeste 11 Oeste 0 -- -- 87
2020-06-26 05:00:00 14.8 11 Noroeste 15 Noroeste 0 -- -- 87
2020-06-26 04:00:00 15.1 9 Oeste 13 Oeste 0 -- -- 84
2020-06-26 03:00:00 15.9 9 Noroeste 11 Noroeste 0 -- -- 81
2020-06-26 02:00:00 17.4 5 Oeste 12 Norte 0 -- -- 76
2020-06-26 01:00:00 19.2 10 Norte 15 Noroeste 0 -- -- 71
2020-06-26 00:00:00 19.8 11 Norte 19 Noroeste 0 -- -- 66
2020-06-25 23:00:00 21.2 9 Oeste 15 Oeste 0 -- -- 56
2020-06-25 22:00:00 25.5 13 Oeste 24 Oeste 0 -- -- 41
2020-06-25 21:00:00 28.5 20 Oeste 32 Sudoeste 0 -- -- 32
2020-06-25 20:00:00 29.7 19 Sudoeste 35 Sudoeste 0 -- -- 33
2020-06-25 19:00:00 30.2 18 Sudoeste 47 Sudoeste 0 -- -- 34
2020-06-25 18:00:00 31.2 19 Sudoeste 35 Oeste 0 -- -- 33
2020-06-25 17:00:00 30.7 21 Sudoeste 44 Sudoeste 0 -- -- 35
2020-06-25 16:00:00 30.7 23 Sudoeste 37 Sudoeste 0 -- -- 32
2020-06-25 15:00:00 30.3 19 Sudoeste 44 Sudoeste 0 -- -- 35
2020-06-25 14:00:00 28.9 12 Sudoeste 37 Oeste 0 -- -- 42
2020-06-25 13:00:00 27 6 Sur 14 Sur 0 -- -- 51
2020-06-25 12:00:00 24.7 5 Sudeste 14 Este 0 -- -- 54
2020-06-25 11:00:00 22.1 4 Este 12 Norte 0 -- -- 66
2020-06-25 10:00:00 20.1 6 Norte 15 Norte 0 -- -- 75
2020-06-25 09:00:00 17.9 11 Noroeste 15 Noroeste 0 -- -- 86
2020-06-25 08:00:00 15.7 6 Noroeste 16 Oeste 0 -- -- 91
2020-06-25 07:00:00 15 10 Noroeste 21 Noroeste 0.4 -- -- 90
2020-06-25 06:00:00 15.4 9 Norte 20 Noroeste 0.2 -- -- 91
2020-06-25 05:00:00 15 7 Noroeste 17 Oeste 0.2 -- -- 90
2020-06-25 04:00:00 14.9 5 Norte 12 Noroeste 0 -- -- 87
2020-06-25 03:00:00 15.1 8 Noroeste 13 Noroeste 0 -- -- 86
2020-06-25 02:00:00 16.3 3 Norte 13 Este 0 -- -- 82
2020-06-25 01:00:00 17.1 11 Nordeste 21 Norte 0 -- -- 76
2020-06-25 00:00:00 18.1 17 Norte 30 Noroeste 0 -- -- 78
2020-06-24 23:00:00 18.8 19 Noroeste 38 Norte 0.2 -- -- 75
2020-06-24 22:00:00 20.2 24 Norte 46 Norte 0 -- -- 67
2020-06-24 21:00:00 22.5 16 Noroeste 35 Noroeste 0 -- -- 54
2020-06-24 20:00:00 21.6 22 Este 66 Sur 0.8 -- -- 57
2020-06-24 19:00:00 25.3 40 Sur 71 Sur 0 -- -- 41
2020-06-24 18:00:00 25.7 16 Sur 33 Sur 0 -- -- 43
2020-06-24 17:00:00 28.3 17 Sudeste 32 Sudeste 0.2 -- -- 37
2020-06-24 16:00:00 29 23 Sudeste 36 Sudeste 0 -- -- 36
2020-06-24 15:00:00 27 19 Sudeste 32 Sudeste 0.4 -- -- 44
2020-06-24 14:00:00 30.3 0 Calma 17 Sudoeste 0 -- -- 37
2020-06-24 13:00:00 29 6 Sur 20 Sur 0 -- -- 38
2020-06-24 12:00:00 28.5 12 Sur 20 Sur 0 -- -- 38
2020-06-24 11:00:00 24.9 8 Nordeste 14 Nordeste 0 -- -- 44
2020-06-24 10:00:00 21.7 12 Norte 17 Norte 0 -- -- 58
2020-06-24 09:00:00 18.8 12 Noroeste 18 Noroeste 0 -- -- 68
2020-06-24 08:00:00 17.3 12 Noroeste 18 Noroeste 0 -- -- 74
2020-06-24 07:00:00 15.3 10 Noroeste 16 Noroeste 0 -- -- 79
2020-06-24 06:00:00 16 10 Norte 18 Norte 0 -- -- 71
2020-06-24 05:00:00 15.9 4 Norte 6 Norte 0 -- -- 68
2020-06-24 04:00:00 17.4 4 Norte 11 Norte 0 -- -- 63
2020-06-24 03:00:00 18.6 11 Noroeste 18 Noroeste 0 -- -- 57
2020-06-24 02:00:00 19.9 4 Norte 21 Nordeste 0 -- -- 52
2020-06-24 01:00:00 20.4 6 Norte 11 Norte 0 -- -- 52
2020-06-24 00:00:00 21.9 10 Norte 13 Norte 0 -- -- 47
2020-06-23 23:00:00 23.5 5 Nordeste 15 Este 0 -- -- 41
2020-06-23 22:00:00 27.8 15 Este 33 Este 0 -- -- 32
2020-06-23 21:00:00 32.8 17 Sudeste 30 Este 0 -- -- 25
2020-06-23 20:00:00 35.5 15 Oeste 37 Sudoeste 0 -- -- 19
2020-06-23 19:00:00 35.5 7 Sur 33 Sudoeste 0 -- -- 20
2020-06-23 18:00:00 35.6 8 Sur 29 Sudoeste 0 -- -- 18
2020-06-23 17:00:00 35.8 18 Oeste 27 Oeste 0 -- -- 20
2020-06-23 16:00:00 35.5 6 Sur 20 Sudeste 0 -- -- 21
2020-06-23 15:00:00 34.3 5 Sudeste 21 Norte 0 -- -- 24
2020-06-23 14:00:00 32.9 6 Noroeste 19 Norte 0 -- -- 26
2020-06-23 13:00:00 31 10 Norte 24 Norte 0 -- -- 29
2020-06-23 12:00:00 28.3 14 Norte 22 Norte 0 -- -- 34
2020-06-23 11:00:00 26 12 Norte 20 Nordeste 0 -- -- 40
2020-06-23 10:00:00 22.9 11 Norte 21 Norte 0 -- -- 45
2020-06-23 09:00:00 19.3 14 Norte 22 Norte 0 -- -- 58
2020-06-23 08:00:00 15.6 12 Norte 17 Norte 0 -- -- 75
2020-06-23 07:00:00 13.4 13 Norte 16 Noroeste 0 -- -- 84
2020-06-23 06:00:00 14.5 13 Noroeste 15 Noroeste 0 -- -- 81
2020-06-23 05:00:00 14.8 12 Noroeste 17 Norte 0 -- -- 86
2020-06-23 04:00:00 17.4 12 Norte 21 Nordeste 0 -- -- 73
2020-06-23 03:00:00 18.4 12 Nordeste 23 Nordeste 0 -- -- 68
2020-06-23 02:00:00 19.5 14 Nordeste 25 Nordeste 0 -- -- 62
2020-06-23 01:00:00 20.9 18 Nordeste 33 Nordeste 0 -- -- 54
2020-06-23 00:00:00 21.1 15 Nordeste 21 Nordeste 0 -- -- 47
2020-06-22 23:00:00 23.2 13 Nordeste 21 Nordeste 0 -- -- 36
2020-06-22 22:00:00 26 15 Nordeste 19 Nordeste 0 -- -- 29
2020-06-22 21:00:00 30.8 11 Nordeste 20 Norte 0 -- -- 23
2020-06-22 20:00:00 32.4 11 Nordeste 21 Nordeste 0 -- -- 21
2020-06-22 19:00:00 32.7 12 Nordeste 30 Nordeste 0 -- -- 21
2020-06-22 18:00:00 32.9 13 Norte 33 Este 0 -- -- 21
2020-06-22 17:00:00 32.6 10 Nordeste 26 Nordeste 0 -- -- 23
2020-06-22 16:00:00 31.5 9 Este 28 Nordeste 0 -- -- 25
2020-06-22 15:00:00 30.3 14 Nordeste 27 Nordeste 0 -- -- 27
2020-06-22 14:00:00 29.3 15 Nordeste 30 Este 0 -- -- 29
2020-06-22 13:00:00 27.4 16 Nordeste 33 Nordeste 0 -- -- 33
2020-06-22 12:00:00 25.4 17 Nordeste 31 Nordeste 0 -- -- 41
2020-06-22 11:00:00 22.8 19 Nordeste 31 Nordeste 0 -- -- 53
2020-06-22 10:00:00 20.1 17 Nordeste 28 Nordeste 0 -- -- 64
2020-06-22 09:00:00 17.4 18 Nordeste 27 Nordeste 0 -- -- 73
2020-06-22 08:00:00 14.8 10 Norte 15 Norte 0 -- -- 85
2020-06-22 07:00:00 12.4 13 Norte 15 Norte 0 -- -- 91
2020-06-22 06:00:00 12.3 11 Norte 15 Norte 0 -- -- 89
2020-06-22 05:00:00 12.9 9 Norte 13 Norte 0 -- -- 86
2020-06-22 04:00:00 14.3 11 Norte 17 Norte 0 -- -- 82
2020-06-22 03:00:00 15.4 10 Norte 22 Nordeste 0 -- -- 79
2020-06-22 02:00:00 16.8 15 Nordeste 24 Norte 0 -- -- 74
2020-06-22 01:00:00 18.1 14 Nordeste 32 Nordeste 0 -- -- 68
2020-06-22 00:00:00 20.2 25 Nordeste 44 Nordeste 0 -- -- 61
2020-06-21 23:00:00 22.1 19 Norte 32 Noroeste 0 -- -- 54
2020-06-21 22:00:00 24.3 15 Norte 32 Norte 0 -- -- 49
2020-06-21 21:00:00 29 10 Norte 16 Norte 0 -- -- 32
2020-06-21 20:00:00 29.9 6 Sudeste 17 Norte 0 -- -- 29
2020-06-21 19:00:00 30.3 12 Norte 21 Noroeste 0 -- -- 28
2020-06-21 18:00:00 30.3 13 Noroeste 24 Norte 0 -- -- 27
2020-06-21 17:00:00 29.5 11 Noroeste 20 Noroeste 0 -- -- 26
2020-06-21 16:00:00 28.7 9 Noroeste 23 Oeste 0 -- -- 25
2020-06-21 15:00:00 28 10 Oeste 21 Oeste 0 -- -- 27
2020-06-21 14:00:00 26.7 4 Norte 18 Noroeste 0 -- -- 30
2020-06-21 13:00:00 25.2 5 Sur 13 Sur 0 -- -- 37
2020-06-21 12:00:00 23.3 5 Sudeste 11 Sudeste 0 -- -- 43
2020-06-21 11:00:00 21 4 Sudoeste 9 Sur 0 -- -- 50
2020-06-21 10:00:00 19.2 4 Este 9 Nordeste 0 -- -- 55
2020-06-21 09:00:00 15.5 2 Sur 5 Sudeste 0 -- -- 71
2020-06-21 08:00:00 11.7 0 Calma 4 Oeste 0 -- -- 82
2020-06-21 07:00:00 8.6 3 Sudoeste 5 Sur 0 -- -- 81
2020-06-21 06:00:00 10 3 Sur 10 Sudoeste 0 -- -- 80
2020-06-21 05:00:00 10.2 5 Sudoeste 8 Sudoeste 0 -- -- 79
2020-06-21 04:00:00 11.6 6 Sur 10 Sur 0 -- -- 80
2020-06-21 03:00:00 11.7 0 Calma 7 Noroeste 0 -- -- 69
2020-06-21 02:00:00 13.3 0 Calma 12 Oeste 0 -- -- 65
2020-06-21 01:00:00 15.5 6 Oeste 11 Noroeste 0 -- -- 57
2020-06-21 00:00:00 16.6 6 Noroeste 21 Noroeste 0 -- -- 52
2020-06-20 23:00:00 18.7 5 Este 15 Oeste 0 -- -- 46
2020-06-20 22:00:00 22.9 13 Oeste 24 Sudoeste 0 -- -- 39
2020-06-20 21:00:00 26.6 18 Oeste 32 Oeste 0 -- -- 31
2020-06-20 20:00:00 27.9 22 Oeste 32 Sudoeste 0 -- -- 27
2020-06-20 19:00:00 28.9 17 Oeste 35 Sudoeste 0 -- -- 28
2020-06-20 18:00:00 29.2 20 Oeste 37 Sudoeste 0 -- -- 24
2020-06-20 17:00:00 28.7 17 Sudoeste 30 Sudoeste 0 -- -- 28
2020-06-20 16:00:00 28.2 15 Sudoeste 28 Sudoeste 0 -- -- 29
2020-06-20 15:00:00 26.9 13 Sudoeste 28 Sur 0 -- -- 29
2020-06-20 14:00:00 25.7 11 Sudoeste 21 Sudoeste 0 -- -- 33
2020-06-20 13:00:00 24.1 7 Sur 15 Sur 0 -- -- 37
2020-06-20 12:00:00 22.6 4 Sur 13 Nordeste 0 -- -- 42
2020-06-20 11:00:00 20.7 7 Sudeste 13 Nordeste 0 -- -- 43
2020-06-20 10:00:00 18.4 5 Nordeste 14 Nordeste 0 -- -- 53
2020-06-20 09:00:00 15.5 5 Nordeste 10 Nordeste 0 -- -- 63
2020-06-20 08:00:00 11.3 3 Noroeste 6 Noroeste 0 -- -- 78
2020-06-20 07:00:00 8.9 0 Calma 9 Oeste 0 -- -- 80
2020-06-20 06:00:00 9 4 Norte 10 Norte 0 -- -- 78
2020-06-20 05:00:00 9.4 10 Norte 12 Norte 0 -- -- 78
2020-06-20 04:00:00 10.7 6 Norte 12 Nordeste 0 -- -- 75
2020-06-20 03:00:00 12.7 9 Nordeste 20 Este 0 -- -- 71
2020-06-20 02:00:00 13.1 8 Noroeste 15 Noroeste 0 -- -- 69
2020-06-20 01:00:00 14.4 8 Norte 15 Noroeste 0 -- -- 65
2020-06-20 00:00:00 16.2 9 Norte 19 Norte 0 -- -- 58
2020-06-19 23:00:00 18.3 12 Noroeste 18 Sudoeste 0 -- -- 50
2020-06-19 22:00:00 22.1 12 Sudoeste 31 Sudoeste 0 -- -- 37
2020-06-19 21:00:00 25.1 18 Sudoeste 31 Sudoeste 0 -- -- 31
2020-06-19 20:00:00 26.6 17 Oeste 31 Sudoeste 0 -- -- 29
2020-06-19 19:00:00 26.8 17 Sudoeste 29 Sudoeste 0 -- -- 31
2020-06-19 18:00:00 27.2 14 Sudoeste 28 Sudoeste 0 -- -- 28
2020-06-19 17:00:00 26.7 12 Sudoeste 25 Sudoeste 0 -- -- 29
2020-06-19 16:00:00 26 11 Oeste 29 Oeste 0 -- -- 25
2020-06-19 15:00:00 24.5 12 Oeste 24 Sudoeste 0 -- -- 31
2020-06-19 14:00:00 23.1 12 Sudoeste 22 Sudoeste 0 -- -- 33
2020-06-19 13:00:00 21.5 9 Oeste 18 Oeste 0 -- -- 43
2020-06-19 12:00:00 19.7 9 Oeste 21 Noroeste 0 -- -- 50
2020-06-19 11:00:00 18.1 6 Norte 13 Noroeste 0 -- -- 57
2020-06-19 10:00:00 16 9 Noroeste 15 Noroeste 0 -- -- 63
2020-06-19 09:00:00 13.4 8 Norte 13 Norte 0 -- -- 75
2020-06-19 08:00:00 10.3 8 Noroeste 12 Noroeste 0 -- -- 90
2020-06-19 07:00:00 7.2 9 Noroeste 12 Noroeste 0 -- -- 91
2020-06-19 06:00:00 7.8 7 Noroeste 12 Noroeste 0 -- -- 88
2020-06-19 05:00:00 8.7 8 Noroeste 13 Norte 0 -- -- 88
2020-06-19 04:00:00 9.5 10 Norte 13 Norte 0 -- -- 85
2020-06-19 03:00:00 11.2 10 Norte 16 Nordeste 0 -- -- 81
2020-06-19 02:00:00 12 12 Nordeste 17 Nordeste 0 -- -- 78
2020-06-19 01:00:00 13.2 11 Norte 19 Norte 0 -- -- 63
2020-06-19 00:00:00 14.1 12 Noroeste 18 Noroeste 0 -- -- 62
2020-06-18 23:00:00 16.7 10 Noroeste 27 Noroeste 0 -- -- 53
2020-06-18 22:00:00 19.7 10 Sudoeste 20 Sudoeste 0 -- -- 37
2020-06-18 21:00:00 23.3 14 Oeste 31 Sudoeste 0 -- -- 32
2020-06-18 20:00:00 24.2 10 Sudoeste 30 Sudoeste 0 -- -- 31
2020-06-18 19:00:00 24.5 9 Sudoeste 26 Sudoeste 0 -- -- 29
2020-06-18 18:00:00 24.8 11 Sudoeste 29 Oeste 0 -- -- 31
2020-06-18 17:00:00 23.4 6 Sur 16 Sudoeste 0 -- -- 36
2020-06-18 16:00:00 23 10 Noroeste 21 Norte 0 -- -- 38
2020-06-18 15:00:00 21.9 11 Oeste 23 Oeste 0 -- -- 41
2020-06-18 14:00:00 20.5 12 Noroeste 21 Oeste 0 -- -- 47
2020-06-18 13:00:00 20 5 Norte 15 Noroeste 0 -- -- 48
2020-06-18 12:00:00 19.4 9 Nordeste 22 Norte 0 -- -- 51
2020-06-18 11:00:00 17.5 7 Nordeste 18 Nordeste 0 -- -- 58
2020-06-18 10:00:00 15.9 8 Nordeste 16 Norte 0 -- -- 64
2020-06-18 09:00:00 13.3 10 Norte 17 Noroeste 0 -- -- 77
2020-06-18 08:00:00 10.5 8 Noroeste 13 Noroeste 0 -- -- 90
2020-06-18 07:00:00 8.7 10 Noroeste 15 Norte 0 -- -- 91
2020-06-18 06:00:00 9.9 9 Noroeste 13 Noroeste 0 -- -- 90
2020-06-18 05:00:00 9.7 10 Norte 12 Noroeste 0 -- -- 91
2020-06-18 04:00:00 8.9 9 Norte 13 Norte 0 -- -- 91
2020-06-18 03:00:00 8.9 7 Norte 10 Norte 0 -- -- 87
2020-06-18 02:00:00 10.7 7 Norte 14 Nordeste 0 -- -- 84
2020-06-18 01:00:00 12.3 9 Nordeste 14 Norte 0 -- -- 78
2020-06-18 00:00:00 14 12 Norte 21 Norte 0 -- -- 72
2020-06-17 23:00:00 14.2 13 Norte 34 Noroeste 0 -- -- 70
2020-06-17 22:00:00 16.9 22 Noroeste 31 Noroeste 0 -- -- 58
2020-06-17 21:00:00 19.8 13 Noroeste 22 Noroeste 0 -- -- 45
2020-06-17 20:00:00 20.3 3 Noroeste 10 Noroeste 0 -- -- 41
2020-06-17 19:00:00 20.9 5 Sudoeste 14 Sudoeste 0 -- -- 38
2020-06-17 18:00:00 21.2 8 Oeste 21 Oeste 0 -- -- 37
2020-06-17 17:00:00 22.1 10 Noroeste 25 Oeste 0 -- -- 36
2020-06-17 16:00:00 22.2 6 Norte 22 Sudoeste 0 -- -- 36
2020-06-17 15:00:00 20.4 11 Noroeste 21 Noroeste 0 -- -- 39
2020-06-17 14:00:00 19.4 6 Oeste 26 Noroeste 0 -- -- 40
2020-06-17 13:00:00 19 8 Norte 18 Noroeste 0 -- -- 43
2020-06-17 12:00:00 18.3 7 Noroeste 18 Noroeste 0 -- -- 47
2020-06-17 11:00:00 17 7 Nordeste 26 Norte 0 -- -- 51
2020-06-17 10:00:00 15.6 14 Norte 20 Noroeste 0 -- -- 59
2020-06-17 09:00:00 13.2 9 Norte 14 Noroeste 0 -- -- 69
2020-06-17 08:00:00 10.7 4 Norte 9 Noroeste 0 -- -- 82
2020-06-17 07:00:00 8 7 Noroeste 9 Noroeste 0 -- -- 85
2020-06-17 06:00:00 10 4 Noroeste 11 Norte 0 -- -- 80
2020-06-17 05:00:00 10.6 4 Oeste 10 Nordeste 0 -- -- 80
2020-06-17 04:00:00 10.7 8 Norte 13 Noroeste 0 -- -- 77
2020-06-17 03:00:00 10.7 11 Noroeste 14 Noroeste 0 -- -- 78
2020-06-17 02:00:00 11.6 10 Noroeste 16 Noroeste 0 -- -- 74
2020-06-17 01:00:00 12.2 12 Noroeste 17 Noroeste 0 -- -- 71
2020-06-17 00:00:00 13.8 10 Noroeste 21 Noroeste 0 -- -- 63
2020-06-16 23:00:00 14.9 14 Noroeste 22 Noroeste 0 -- -- 59
2020-06-16 22:00:00 15.5 16 Noroeste 34 Noroeste 0 -- -- 57
2020-06-16 21:00:00 17.5 23 Noroeste 39 Oeste 0 -- -- 48
2020-06-16 20:00:00 21 26 Oeste 41 Oeste 0 -- -- 39
2020-06-16 19:00:00 21.6 30 Oeste 49 Oeste 0 -- -- 40
2020-06-16 18:00:00 21.8 31 Oeste 59 Sudoeste 0 -- -- 42
2020-06-16 17:00:00 22.3 30 Oeste 49 Sudoeste 0.2 -- -- 42
2020-06-16 16:00:00 21.9 32 Sudoeste 48 Sudoeste 0 -- -- 45
2020-06-16 15:00:00 21.2 31 Sudoeste 49 Sudoeste 0 -- -- 48
2020-06-16 14:00:00 20.9 24 Sudoeste 44 Sudoeste 0 -- -- 48
2020-06-16 13:00:00 18.5 22 Oeste 34 Oeste 0 -- -- 61
2020-06-16 12:00:00 18.7 19 Oeste 31 Oeste 0 -- -- 53
2020-06-16 11:00:00 18.1 15 Sudoeste 23 Sudoeste 0 -- -- 57
2020-06-16 10:00:00 15.8 3 Noroeste 16 Oeste 0 -- -- 65
2020-06-16 09:00:00 13.1 5 Oeste 12 Sudoeste 0 -- -- 75
2020-06-16 08:00:00 10.2 0 Calma 8 Nordeste 0 -- -- 85
2020-06-16 07:00:00 9.2 5 Sudoeste 14 Sudoeste 0 -- -- 87
2020-06-16 06:00:00 9.9 5 Oeste 10 Sudoeste 0 -- -- 85
2020-06-16 05:00:00 11.2 5 Sudoeste 10 Sudoeste 0 -- -- 82
2020-06-16 04:00:00 12.1 8 Sudoeste 12 Sudoeste 0 -- -- 79
2020-06-16 03:00:00 12.5 6 Sudoeste 8 Oeste 0 -- -- 78
2020-06-16 02:00:00 13.3 6 Oeste 8 Oeste 0 -- -- 74
2020-06-16 01:00:00 14 4 Oeste 12 Oeste 0 -- -- 71
2020-06-16 00:00:00 14.6 9 Oeste 17 Oeste 0 -- -- 67
2020-06-15 23:00:00 15.4 12 Oeste 25 Oeste 0 -- -- 64
2020-06-15 22:00:00 16.2 17 Oeste 29 Sudoeste 0 -- -- 59
2020-06-15 21:00:00 17.2 17 Oeste 32 Oeste 0 -- -- 55
2020-06-15 20:00:00 18.2 18 Oeste 35 Sudoeste 0 -- -- 53
2020-06-15 19:00:00 19.8 20 Oeste 34 Oeste 0 -- -- 48
2020-06-15 18:00:00 20.8 21 Sudoeste 36 Sudoeste 0 -- -- 45
2020-06-15 17:00:00 21.4 18 Oeste 35 Oeste 0 -- -- 42
2020-06-15 16:00:00 21.3 16 Oeste 47 Oeste 0 -- -- 43
2020-06-15 15:00:00 21 14 Sudoeste 26 Sudoeste 0 -- -- 43
2020-06-15 14:00:00 20.3 15 Sudoeste 59 Sur 0 -- -- 45
2020-06-15 13:00:00 18.6 4 Este 17 Oeste 0 -- -- 48
2020-06-15 12:00:00 17.6 5 Oeste 14 Noroeste 0 -- -- 51
2020-06-15 11:00:00 17.2 6 Sudeste 12 Este 0 -- -- 56
2020-06-15 10:00:00 14.8 6 Norte 10 Norte 0 -- -- 65
2020-06-15 09:00:00 12.4 2 Sudoeste 6 Norte 0 -- -- 76
2020-06-15 08:00:00 9.3 0 Calma 9 Norte 0 -- -- 90
2020-06-15 07:00:00 6.4 4 Norte 13 Norte 0 -- -- 89
2020-06-15 06:00:00 8 8 Sudoeste 10 Sur 0 -- -- 90
2020-06-15 05:00:00 8.2 7 Sudoeste 8 Sudoeste 0 -- -- 90
2020-06-15 04:00:00 8.4 4 Sur 8 Sur 0 -- -- 87
2020-06-15 03:00:00 9.3 8 Noroeste 14 Noroeste 0 -- -- 87
2020-06-15 02:00:00 10.5 11 Oeste 13 Sudoeste 0 -- -- 81
2020-06-15 01:00:00 11.6 5 Oeste 12 Oeste 0 -- -- 76
2020-06-15 00:00:00 13.8 6 Oeste 16 Oeste 0 -- -- 68
2020-06-14 23:00:00 15.4 13 Oeste 26 Oeste 0 -- -- 62
2020-06-14 22:00:00 16.1 18 Oeste 32 Oeste 0 -- -- 58
2020-06-14 21:00:00 17.2 21 Oeste 34 Oeste 0 -- -- 56
2020-06-14 20:00:00 18.6 24 Oeste 38 Oeste 0 -- -- 50
2020-06-14 19:00:00 20.5 21 Oeste 34 Sudoeste 0 -- -- 44
2020-06-14 18:00:00 20.2 23 Oeste 36 Sudoeste 0 -- -- 44
2020-06-14 17:00:00 20.3 18 Sudoeste 34 Sudoeste 0 -- -- 43
2020-06-14 16:00:00 19.9 18 Oeste 33 Sudoeste 0 -- -- 44
2020-06-14 15:00:00 19.6 18 Sudoeste 32 Sudoeste 0 -- -- 44
2020-06-14 14:00:00 19.6 19 Sudoeste 32 Sudoeste 0 -- -- 41
2020-06-14 13:00:00 18.3 16 Oeste 31 Oeste 0 -- -- 44
2020-06-14 12:00:00 17.8 18 Oeste 29 Sudoeste 0 -- -- 44
2020-06-14 11:00:00 15.6 13 Oeste 21 Sudoeste 0 -- -- 52
2020-06-14 10:00:00 14 12 Sudoeste 21 Sudoeste 0 -- -- 61
2020-06-14 09:00:00 10.4 6 Sudoeste 12 Sur 0 -- -- 82
2020-06-14 08:00:00 8.8 3 Sudoeste 7 Sur 0 -- -- 90
2020-06-14 07:00:00 6.5 5 Sur 9 Sur 0 -- -- 93
2020-06-14 06:00:00 5.7 4 Este 5 Este 0 -- -- 90
2020-06-14 05:00:00 5.9 0 Calma 5 Sudeste 0 -- -- 88
2020-06-14 04:00:00 6.9 0 Calma 15 Sudoeste 0 -- -- 85
2020-06-14 03:00:00 8.3 9 Sudoeste 13 Sudoeste 0 -- -- 84
2020-06-14 02:00:00 8.7 7 Sudoeste 14 Sudoeste 0 -- -- 79
2020-06-14 01:00:00 8.8 9 Oeste 13 Oeste 0 -- -- 81
2020-06-14 00:00:00 10.2 8 Oeste 16 Oeste 0 -- -- 75
2020-06-13 23:00:00 12 13 Oeste 19 Oeste 0 -- -- 68
2020-06-13 22:00:00 15.3 12 Sudoeste 24 Sudoeste 0 -- -- 55
2020-06-13 21:00:00 16.6 17 Oeste 32 Oeste 0 -- -- 52
2020-06-13 20:00:00 17.9 26 Oeste 39 Oeste 0 -- -- 45
2020-06-13 19:00:00 18.5 22 Sudoeste 34 Sudoeste 0 -- -- 46
2020-06-13 18:00:00 17.4 18 Sudoeste 44 Sur 0 -- -- 50
2020-06-13 17:00:00 16.3 18 Sudoeste 35 Sudoeste 0 -- -- 58
2020-06-13 16:00:00 18.2 22 Sudoeste 37 Oeste 0 -- -- 50
2020-06-13 15:00:00 17 21 Sudoeste 35 Sudoeste 0 -- -- 54
2020-06-13 14:00:00 17.3 22 Sudoeste 39 Sudoeste 0 -- -- 53
2020-06-13 13:00:00 17 18 Sudoeste 36 Sudoeste 0 -- -- 53
2020-06-13 12:00:00 16.3 23 Sudoeste 49 Sudoeste 0 -- -- 55
2020-06-13 11:00:00 14.5 24 Sudoeste 48 Sudoeste 0 -- -- 63
2020-06-13 10:00:00 12.8 23 Sudoeste 36 Sudoeste 0 -- -- 71
2020-06-13 09:00:00 10.1 17 Sudoeste 30 Sudoeste 0 -- -- 85
2020-06-13 08:00:00 9.4 13 Sudoeste 18 Sudoeste 0 -- -- 90
2020-06-13 07:00:00 7.8 5 Sur 18 Sudoeste 0 -- -- 90
2020-06-13 06:00:00 8.2 13 Sudoeste 21 Sudoeste 0 -- -- 91
2020-06-13 05:00:00 8 9 Sudeste 23 Sudoeste 0 -- -- 88
2020-06-13 04:00:00 9.1 15 Sudoeste 23 Sudoeste 0 -- -- 89
2020-06-13 03:00:00 9.7 14 Sudoeste 31 Sudoeste 0 -- -- 87
2020-06-13 02:00:00 10 15 Sudoeste 27 Sudoeste 0 -- -- 88
2020-06-13 01:00:00 10.3 18 Sudoeste 29 Sudoeste 0 -- -- 89
2020-06-13 00:00:00 10.2 14 Sudoeste 24 Sudoeste 0 -- -- 89
2020-06-12 23:00:00 10.5 13 Sudoeste 28 Sudoeste 0 -- -- 89
2020-06-12 22:00:00 10.9 22 Sudoeste 33 Sudoeste 0 -- -- 85
2020-06-12 21:00:00 11.7 25 Sudoeste 47 Sudoeste 0.2 -- -- 81
2020-06-12 20:00:00 13.8 28 Sudoeste 41 Sudoeste 0 -- -- 69
2020-06-12 19:00:00 13.6 25 Sudoeste 43 Sudoeste 0 -- -- 71
2020-06-12 18:00:00 12.3 23 Sudoeste 34 Sudoeste 0.4 -- -- 82
2020-06-12 17:00:00 11.5 26 Oeste 46 Oeste 1.6 -- -- 86
2020-06-12 16:00:00 14.7 27 Sudoeste 50 Oeste 0.4 -- -- 67
2020-06-12 15:00:00 14.5 32 Sudoeste 54 Sudoeste 0 -- -- 71
2020-06-12 14:00:00 15.5 28 Sudoeste 47 Sudoeste 0 -- -- 59
2020-06-12 13:00:00 15 32 Sudoeste 58 Sudoeste 0 -- -- 54
2020-06-12 12:00:00 16.1 31 Oeste 50 Oeste 0 -- -- 52
2020-06-12 11:00:00 14 32 Sudoeste 48 Sudoeste 0 -- -- 59
2020-06-12 10:00:00 13.2 27 Sudoeste 40 Sudoeste 0 -- -- 68
2020-06-12 09:00:00 10.9 25 Sudoeste 43 Sudoeste 0 -- -- 81
2020-06-12 08:00:00 9.6 24 Sudoeste 36 Sudoeste 0 -- -- 87
2020-06-12 07:00:00 9.2 21 Sudoeste 37 Sudoeste 0 -- -- 87
2020-06-12 06:00:00 9.5 23 Sudoeste 48 Sudoeste 0 -- -- 83
2020-06-12 05:00:00 10.2 26 Sudoeste 47 Sudoeste 0 -- -- 75
2020-06-12 04:00:00 9.9 30 Sudoeste 48 Sudoeste 0 -- -- 71
2020-06-12 03:00:00 9.3 27 Sudoeste 55 Sudoeste 0 -- -- 71
2020-06-12 02:00:00 9.1 19 Sudoeste 32 Sudoeste 0 -- -- 71
2020-06-12 01:00:00 9.2 25 Sudoeste 50 Sudoeste 0 -- -- 69
2020-06-12 00:00:00 9.7 30 Sudoeste 49 Sudoeste 0 -- -- 65
2020-06-11 23:00:00 10.7 24 Oeste 43 Oeste 0 -- -- 64
2020-06-11 22:00:00 12.2 23 Oeste 45 Oeste 0 -- -- 58
2020-06-11 21:00:00 14.1 31 Oeste 55 Oeste 0 -- -- 50
2020-06-11 20:00:00 17.1 37 Oeste 59 Sudoeste 0 -- -- 45
2020-06-11 19:00:00 17.9 36 Oeste 63 Oeste 0 -- -- 42
2020-06-11 18:00:00 19.3 36 Oeste 54 Sudoeste 0 -- -- 42
2020-06-11 17:00:00 18.6 33 Sudoeste 52 Sudoeste 0 -- -- 46
2020-06-11 16:00:00 19 32 Sudoeste 51 Sudoeste 0 -- -- 50
2020-06-11 15:00:00 18.9 33 Sudoeste 57 Oeste 0 -- -- 48
2020-06-11 14:00:00 19.9 37 Sudoeste 58 Sudoeste 0 -- -- 48
2020-06-11 13:00:00 19 33 Sudoeste 53 Sudoeste 0 -- -- 53
2020-06-11 12:00:00 18.7 31 Sudoeste 49 Sudoeste 0 -- -- 54
2020-06-11 11:00:00 18.1 26 Oeste 46 Oeste 0 -- -- 56
2020-06-11 10:00:00 15.7 23 Sudoeste 34 Sudoeste 0 -- -- 60
2020-06-11 09:00:00 14.8 20 Sudoeste 35 Sudoeste 0 -- -- 60
2020-06-11 08:00:00 13.2 12 Sudoeste 24 Oeste 0 -- -- 74
2020-06-11 07:00:00 13 16 Oeste 23 Sudoeste 0 -- -- 75
2020-06-11 06:00:00 12.6 10 Sudoeste 19 Sudoeste 0 -- -- 77
2020-06-11 05:00:00 11.3 3 Sudoeste 13 Sur 0 -- -- 81
2020-06-11 04:00:00 10.5 6 Sur 12 Sur 0 -- -- 81
2020-06-11 03:00:00 11.1 6 Sudoeste 14 Sudoeste 0 -- -- 77
2020-06-11 02:00:00 11.4 4 Oeste 12 Norte 0 -- -- 76
2020-06-11 01:00:00 12.7 11 Noroeste 15 Noroeste 0 -- -- 70
2020-06-11 00:00:00 15.4 10 Noroeste 24 Noroeste 0 -- -- 57
2020-06-10 23:00:00 17.7 12 Noroeste 29 Oeste 0 -- -- 53
2020-06-10 22:00:00 20.1 18 Oeste 25 Oeste 0 -- -- 45
2020-06-10 21:00:00 22.8 18 Oeste 36 Oeste 0 -- -- 33
2020-06-10 20:00:00 24 22 Oeste 37 Oeste 0 -- -- 29
2020-06-10 19:00:00 24.2 15 Sudoeste 31 Sudoeste 0 -- -- 32
2020-06-10 18:00:00 24.3 17 Sudoeste 30 Oeste 0 -- -- 31
2020-06-10 17:00:00 24.3 11 Sudoeste 28 Sudoeste 0 -- -- 32
2020-06-10 16:00:00 23.2 9 Sudoeste 28 Oeste 0 -- -- 34
2020-06-10 15:00:00 22.3 10 Noroeste 26 Noroeste 0 -- -- 37
2020-06-10 14:00:00 20.7 9 Sudoeste 22 Sudeste 0 -- -- 39
2020-06-10 13:00:00 20.1 5 Sudeste 22 Sudeste 0 -- -- 43
2020-06-10 12:00:00 18.2 8 Noroeste 18 Nordeste 0 -- -- 47
2020-06-10 11:00:00 16.6 8 Nordeste 19 Nordeste 0 -- -- 52
2020-06-10 10:00:00 14.5 8 Nordeste 19 Nordeste 0 -- -- 59
2020-06-10 09:00:00 11.5 13 Norte 19 Norte 0 -- -- 75
2020-06-10 08:00:00 7.9 8 Norte 12 Norte 0 -- -- 92
2020-06-10 07:00:00 6.5 9 Norte 10 Noroeste 0 -- -- 91
2020-06-10 06:00:00 6.9 9 Norte 11 Norte 0 -- -- 90
2020-06-10 05:00:00 7.1 9 Noroeste 12 Norte 0 -- -- 87
2020-06-10 04:00:00 8.4 8 Norte 15 Nordeste 0 -- -- 82
2020-06-10 03:00:00 9.4 11 Nordeste 20 Nordeste 0 -- -- 79
2020-06-10 02:00:00 10.3 13 Nordeste 22 Nordeste 0 -- -- 76
2020-06-10 01:00:00 11.4 17 Nordeste 24 Este 0 -- -- 72
2020-06-10 00:00:00 12.8 17 Nordeste 23 Nordeste 0 -- -- 63